sensor_id;sensor_type;location;lat;lon;timestamp;temperature;humidity
63371;DHT22;72561;48.336;14.472;2024-02-15T00:00:14;23.90;40.30
63371;DHT22;72561;48.336;14.472;2024-02-15T00:01:55;23.90;40.30
63371;DHT22;72561;48.336;14.472;2024-02-15T00:03:36;23.90;40.30
63371;DHT22;72561;48.336;14.472;2024-02-15T00:05:18;23.90;40.30
63371;DHT22;72561;48.336;14.472;2024-02-15T00:06:59;23.90;40.30
63371;DHT22;72561;48.336;14.472;2024-02-15T00:08:40;23.90;40.30
63371;DHT22;72561;48.336;14.472;2024-02-15T00:10:21;23.90;40.30
63371;DHT22;72561;48.336;14.472;2024-02-15T00:12:02;23.90;40.30
63371;DHT22;72561;48.336;14.472;2024-02-15T00:13:45;23.90;40.30
63371;DHT22;72561;48.336;14.472;2024-02-15T00:15:26;23.90;40.30
63371;DHT22;72561;48.336;14.472;2024-02-15T00:17:07;23.90;40.40
63371;DHT22;72561;48.336;14.472;2024-02-15T00:18:49;23.90;40.30
63371;DHT22;72561;48.336;14.472;2024-02-15T00:20:30;23.90;40.30
63371;DHT22;72561;48.336;14.472;2024-02-15T00:22:11;23.90;40.30
63371;DHT22;72561;48.336;14.472;2024-02-15T00:23:52;23.90;40.30
63371;DHT22;72561;48.336;14.472;2024-02-15T00:25:33;23.90;40.40
63371;DHT22;72561;48.336;14.472;2024-02-15T00:27:14;23.90;40.30
63371;DHT22;72561;48.336;14.472;2024-02-15T00:28:57;23.90;40.30
63371;DHT22;72561;48.336;14.472;2024-02-15T00:30:38;23.90;40.40
63371;DHT22;72561;48.336;14.472;2024-02-15T00:32:19;23.90;40.30
63371;DHT22;72561;48.336;14.472;2024-02-15T00:34:00;23.90;40.30
63371;DHT22;72561;48.336;14.472;2024-02-15T00:35:41;23.90;40.30
63371;DHT22;72561;48.336;14.472;2024-02-15T00:37:22;23.90;40.30
63371;DHT22;72561;48.336;14.472;2024-02-15T00:39:03;23.90;40.30
63371;DHT22;72561;48.336;14.472;2024-02-15T00:40:44;23.90;40.30
63371;DHT22;72561;48.336;14.472;2024-02-15T00:42:25;23.90;40.30
63371;DHT22;72561;48.336;14.472;2024-02-15T00:44:08;23.90;40.40
63371;DHT22;72561;48.336;14.472;2024-02-15T00:45:50;23.90;40.40
63371;DHT22;72561;48.336;14.472;2024-02-15T00:47:31;23.90;41.00
63371;DHT22;72561;48.336;14.472;2024-02-15T00:49:12;23.90;40.30
63371;DHT22;72561;48.336;14.472;2024-02-15T00:50:53;23.90;40.30
63371;DHT22;72561;48.336;14.472;2024-02-15T00:52:34;23.90;40.30
63371;DHT22;72561;48.336;14.472;2024-02-15T00:54:16;23.90;40.30
63371;DHT22;72561;48.336;14.472;2024-02-15T00:55:57;23.80;40.20
63371;DHT22;72561;48.336;14.472;2024-02-15T00:57:38;23.90;40.30
63371;DHT22;72561;48.336;14.472;2024-02-15T00:59:20;23.90;40.30
63371;DHT22;72561;48.336;14.472;2024-02-15T01:01:01;23.90;40.30
63371;DHT22;72561;48.336;14.472;2024-02-15T01:02:42;23.90;40.30
63371;DHT22;72561;48.336;14.472;2024-02-15T01:04:24;23.90;40.30
63371;DHT22;72561;48.336;14.472;2024-02-15T01:06:05;23.90;40.30
63371;DHT22;72561;48.336;14.472;2024-02-15T01:07:46;23.90;40.30
63371;DHT22;72561;48.336;14.472;2024-02-15T01:09:27;23.90;40.30
63371;DHT22;72561;48.336;14.472;2024-02-15T01:11:08;23.80;40.30
63371;DHT22;72561;48.336;14.472;2024-02-15T01:12:49;23.90;40.30
63371;DHT22;72561;48.336;14.472;2024-02-15T01:14:32;23.90;40.30
63371;DHT22;72561;48.336;14.472;2024-02-15T01:16:15;23.90;40.30
63371;DHT22;72561;48.336;14.472;2024-02-15T01:17:56;23.90;40.30
63371;DHT22;72561;48.336;14.472;2024-02-15T01:19:38;23.90;40.30
63371;DHT22;72561;48.336;14.472;2024-02-15T01:21:19;23.90;40.30
63371;DHT22;72561;48.336;14.472;2024-02-15T01:23:00;23.90;40.30
63371;DHT22;72561;48.336;14.472;2024-02-15T01:24:41;23.90;40.30
63371;DHT22;72561;48.336;14.472;2024-02-15T01:26:22;23.80;40.30
63371;DHT22;72561;48.336;14.472;2024-02-15T01:28:04;23.90;40.30
63371;DHT22;72561;48.336;14.472;2024-02-15T01:29:47;23.90;40.30
63371;DHT22;72561;48.336;14.472;2024-02-15T01:31:28;23.90;40.30
63371;DHT22;72561;48.336;14.472;2024-02-15T01:33:09;23.90;40.40
63371;DHT22;72561;48.336;14.472;2024-02-15T01:34:50;23.90;40.30
63371;DHT22;72561;48.336;14.472;2024-02-15T01:36:31;23.90;40.30
63371;DHT22;72561;48.336;14.472;2024-02-15T01:38:12;23.90;40.30
63371;DHT22;72561;48.336;14.472;2024-02-15T01:39:53;23.90;40.30
63371;DHT22;72561;48.336;14.472;2024-02-15T01:41:34;23.90;40.30
63371;DHT22;72561;48.336;14.472;2024-02-15T01:43:15;23.90;40.30
63371;DHT22;72561;48.336;14.472;2024-02-15T01:44:58;23.90;40.40
63371;DHT22;72561;48.336;14.472;2024-02-15T01:46:39;23.90;40.30
63371;DHT22;72561;48.336;14.472;2024-02-15T01:48:20;23.90;40.30
63371;DHT22;72561;48.336;14.472;2024-02-15T01:50:02;23.90;40.30
63371;DHT22;72561;48.336;14.472;2024-02-15T01:51:44;23.90;40.30
63371;DHT22;72561;48.336;14.472;2024-02-15T01:53:25;23.90;40.30
63371;DHT22;72561;48.336;14.472;2024-02-15T01:55:07;23.90;40.40
63371;DHT22;72561;48.336;14.472;2024-02-15T01:56:49;23.90;40.40
63371;DHT22;72561;48.336;14.472;2024-02-15T01:58:30;23.80;40.30
63371;DHT22;72561;48.336;14.472;2024-02-15T02:00:15;23.90;40.30
63371;DHT22;72561;48.336;14.472;2024-02-15T02:01:58;23.80;40.30
63371;DHT22;72561;48.336;14.472;2024-02-15T02:03:39;23.90;40.30
63371;DHT22;72561;48.336;14.472;2024-02-15T02:05:21;23.90;40.30
63371;DHT22;72561;48.336;14.472;2024-02-15T02:07:02;23.90;40.30
63371;DHT22;72561;48.336;14.472;2024-02-15T02:08:43;23.90;40.40
63371;DHT22;72561;48.336;14.472;2024-02-15T02:10:24;23.90;40.40
63371;DHT22;72561;48.336;14.472;2024-02-15T02:12:05;23.90;40.40
63371;DHT22;72561;48.336;14.472;2024-02-15T02:13:47;23.90;40.30
63371;DHT22;72561;48.336;14.472;2024-02-15T02:15:29;23.90;40.30
63371;DHT22;72561;48.336;14.472;2024-02-15T02:17:12;23.90;40.30
63371;DHT22;72561;48.336;14.472;2024-02-15T02:18:55;23.90;41.00
63371;DHT22;72561;48.336;14.472;2024-02-15T02:20:36;23.90;40.30
63371;DHT22;72561;48.336;14.472;2024-02-15T02:22:17;23.90;40.40
63371;DHT22;72561;48.336;14.472;2024-02-15T02:23:59;23.90;40.30
63371;DHT22;72561;48.336;14.472;2024-02-15T02:25:44;23.90;40.40
63371;DHT22;72561;48.336;14.472;2024-02-15T02:27:26;23.90;40.30
63371;DHT22;72561;48.336;14.472;2024-02-15T02:29:08;23.90;40.30
63371;DHT22;72561;48.336;14.472;2024-02-15T02:30:49;23.80;40.20
63371;DHT22;72561;48.336;14.472;2024-02-15T02:32:32;23.80;40.30
63371;DHT22;72561;48.336;14.472;2024-02-15T02:34:13;23.80;40.20
63371;DHT22;72561;48.336;14.472;2024-02-15T02:35:54;23.80;40.30
63371;DHT22;72561;48.336;14.472;2024-02-15T02:37:36;23.80;40.20
63371;DHT22;72561;48.336;14.472;2024-02-15T02:39:17;23.90;40.30
63371;DHT22;72561;48.336;14.472;2024-02-15T02:40:59;23.80;40.20
63371;DHT22;72561;48.336;14.472;2024-02-15T02:42:48;23.80;40.20
63371;DHT22;72561;48.336;14.472;2024-02-15T02:44:29;23.80;40.90
63371;DHT22;72561;48.336;14.472;2024-02-15T02:46:11;23.80;40.30
63371;DHT22;72561;48.336;14.472;2024-02-15T02:47:52;23.80;40.30
63371;DHT22;72561;48.336;14.472;2024-02-15T02:49:35;23.80;40.30
63371;DHT22;72561;48.336;14.472;2024-02-15T02:51:16;23.80;40.30
63371;DHT22;72561;48.336;14.472;2024-02-15T02:52:58;23.80;40.30
63371;DHT22;72561;48.336;14.472;2024-02-15T02:54:39;23.80;40.30
63371;DHT22;72561;48.336;14.472;2024-02-15T02:56:21;23.80;40.30
63371;DHT22;72561;48.336;14.472;2024-02-15T02:58:03;23.80;40.30
63371;DHT22;72561;48.336;14.472;2024-02-15T02:59:44;23.80;40.30
63371;DHT22;72561;48.336;14.472;2024-02-15T03:01:25;23.80;40.30
63371;DHT22;72561;48.336;14.472;2024-02-15T03:03:06;23.80;40.30
63371;DHT22;72561;48.336;14.472;2024-02-15T03:04:47;23.80;40.30
63371;DHT22;72561;48.336;14.472;2024-02-15T03:06:28;23.80;40.30
63371;DHT22;72561;48.336;14.472;2024-02-15T03:08:10;23.80;40.40
63371;DHT22;72561;48.336;14.472;2024-02-15T03:09:52;23.80;40.40
63371;DHT22;72561;48.336;14.472;2024-02-15T03:11:34;23.80;40.30
63371;DHT22;72561;48.336;14.472;2024-02-15T03:13:15;23.80;40.40
63371;DHT22;72561;48.336;14.472;2024-02-15T03:14:56;23.80;40.40
63371;DHT22;72561;48.336;14.472;2024-02-15T03:16:37;23.70;40.30
63371;DHT22;72561;48.336;14.472;2024-02-15T03:18:18;23.80;40.30
63371;DHT22;72561;48.336;14.472;2024-02-15T03:20:00;23.70;40.30
63371;DHT22;72561;48.336;14.472;2024-02-15T03:21:41;23.80;40.40
63371;DHT22;72561;48.336;14.472;2024-02-15T03:23:22;23.80;40.40
63371;DHT22;72561;48.336;14.472;2024-02-15T03:25:03;23.70;40.30
63371;DHT22;72561;48.336;14.472;2024-02-15T03:26:46;23.70;40.30
63371;DHT22;72561;48.336;14.472;2024-02-15T03:28:27;23.80;40.40
63371;DHT22;72561;48.336;14.472;2024-02-15T03:30:09;23.70;40.30
63371;DHT22;72561;48.336;14.472;2024-02-15T03:31:50;23.70;40.30
63371;DHT22;72561;48.336;14.472;2024-02-15T03:33:31;23.70;40.30
63371;DHT22;72561;48.336;14.472;2024-02-15T03:35:12;23.80;40.40
63371;DHT22;72561;48.336;14.472;2024-02-15T03:36:54;23.70;40.30
63371;DHT22;72561;48.336;14.472;2024-02-15T03:38:35;23.70;40.40
63371;DHT22;72561;48.336;14.472;2024-02-15T03:40:16;23.70;40.30
63371;DHT22;72561;48.336;14.472;2024-02-15T03:41:59;23.70;40.30
63371;DHT22;72561;48.336;14.472;2024-02-15T03:43:40;23.70;40.30
63371;DHT22;72561;48.336;14.472;2024-02-15T03:45:21;23.70;40.30
63371;DHT22;72561;48.336;14.472;2024-02-15T03:47:03;23.80;40.40
63371;DHT22;72561;48.336;14.472;2024-02-15T03:48:44;23.70;40.30
63371;DHT22;72561;48.336;14.472;2024-02-15T03:50:25;23.70;40.40
63371;DHT22;72561;48.336;14.472;2024-02-15T03:52:06;23.70;40.40
63371;DHT22;72561;48.336;14.472;2024-02-15T03:53:48;23.70;41.00
63371;DHT22;72561;48.336;14.472;2024-02-15T03:55:29;23.70;40.30
63371;DHT22;72561;48.336;14.472;2024-02-15T03:57:11;23.70;40.30
63371;DHT22;72561;48.336;14.472;2024-02-15T03:58:52;23.70;40.30
63371;DHT22;72561;48.336;14.472;2024-02-15T04:00:33;23.80;40.40
63371;DHT22;72561;48.336;14.472;2024-02-15T04:02:14;23.70;40.40
63371;DHT22;72561;48.336;14.472;2024-02-15T04:03:55;23.70;40.30
63371;DHT22;72561;48.336;14.472;2024-02-15T04:05:36;23.70;40.30
63371;DHT22;72561;48.336;14.472;2024-02-15T04:07:18;23.70;40.30
63371;DHT22;72561;48.336;14.472;2024-02-15T04:08:59;23.70;40.30
63371;DHT22;72561;48.336;14.472;2024-02-15T04:10:41;23.70;40.30
63371;DHT22;72561;48.336;14.472;2024-02-15T04:12:23;23.70;40.30
63371;DHT22;72561;48.336;14.472;2024-02-15T04:14:04;23.70;40.40
63371;DHT22;72561;48.336;14.472;2024-02-15T04:15:45;23.70;40.30
63371;DHT22;72561;48.336;14.472;2024-02-15T04:17:26;23.70;40.40
63371;DHT22;72561;48.336;14.472;2024-02-15T04:19:07;23.70;40.30
63371;DHT22;72561;48.336;14.472;2024-02-15T04:20:49;23.70;40.30
63371;DHT22;72561;48.336;14.472;2024-02-15T04:22:30;23.70;40.30
63371;DHT22;72561;48.336;14.472;2024-02-15T04:24:11;23.70;40.40
63371;DHT22;72561;48.336;14.472;2024-02-15T04:25:52;23.70;40.30
63371;DHT22;72561;48.336;14.472;2024-02-15T04:27:34;23.70;40.30
63371;DHT22;72561;48.336;14.472;2024-02-15T04:29:15;23.70;40.30
63371;DHT22;72561;48.336;14.472;2024-02-15T04:30:57;23.80;40.40
63371;DHT22;72561;48.336;14.472;2024-02-15T04:32:38;23.70;40.30
63371;DHT22;72561;48.336;14.472;2024-02-15T04:34:19;23.80;40.40
63371;DHT22;72561;48.336;14.472;2024-02-15T04:36:00;23.70;40.30
63371;DHT22;72561;48.336;14.472;2024-02-15T04:37:42;23.70;40.30
63371;DHT22;72561;48.336;14.472;2024-02-15T04:39:23;23.70;40.30
63371;DHT22;72561;48.336;14.472;2024-02-15T04:41:04;23.70;40.30
63371;DHT22;72561;48.336;14.472;2024-02-15T04:42:46;23.70;40.30
63371;DHT22;72561;48.336;14.472;2024-02-15T04:44:27;23.70;40.30
63371;DHT22;72561;48.336;14.472;2024-02-15T04:46:09;23.70;40.40
63371;DHT22;72561;48.336;14.472;2024-02-15T04:47:50;23.70;40.40
63371;DHT22;72561;48.336;14.472;2024-02-15T04:49:31;23.70;40.40
63371;DHT22;72561;48.336;14.472;2024-02-15T04:51:12;23.80;40.40
63371;DHT22;72561;48.336;14.472;2024-02-15T04:52:53;23.70;40.40
63371;DHT22;72561;48.336;14.472;2024-02-15T04:54:35;23.70;40.40
63371;DHT22;72561;48.336;14.472;2024-02-15T04:56:16;23.70;40.40
63371;DHT22;72561;48.336;14.472;2024-02-15T04:57:58;23.70;40.40
63371;DHT22;72561;48.336;14.472;2024-02-15T04:59:39;23.70;40.40
63371;DHT22;72561;48.336;14.472;2024-02-15T05:01:20;23.70;40.40
63371;DHT22;72561;48.336;14.472;2024-02-15T05:03:02;23.70;40.40
63371;DHT22;72561;48.336;14.472;2024-02-15T05:04:44;23.70;40.40
63371;DHT22;72561;48.336;14.472;2024-02-15T05:06:25;23.70;40.40
63371;DHT22;72561;48.336;14.472;2024-02-15T05:08:07;23.70;40.40
63371;DHT22;72561;48.336;14.472;2024-02-15T05:09:48;23.70;40.40
63371;DHT22;72561;48.336;14.472;2024-02-15T05:11:29;23.80;40.50
63371;DHT22;72561;48.336;14.472;2024-02-15T05:13:12;23.70;40.40
63371;DHT22;72561;48.336;14.472;2024-02-15T05:14:54;23.80;41.20
63371;DHT22;72561;48.336;14.472;2024-02-15T05:16:35;23.70;40.40
63371;DHT22;72561;48.336;14.472;2024-02-15T05:18:16;23.70;40.40
63371;DHT22;72561;48.336;14.472;2024-02-15T05:19:57;23.70;40.40
63371;DHT22;72561;48.336;14.472;2024-02-15T05:21:39;23.70;40.40
63371;DHT22;72561;48.336;14.472;2024-02-15T05:23:21;23.70;40.40
63371;DHT22;72561;48.336;14.472;2024-02-15T05:25:02;23.70;40.40
63371;DHT22;72561;48.336;14.472;2024-02-15T05:26:45;23.70;40.40
63371;DHT22;72561;48.336;14.472;2024-02-15T05:28:27;23.70;40.40
63371;DHT22;72561;48.336;14.472;2024-02-15T05:30:09;23.70;40.40
63371;DHT22;72561;48.336;14.472;2024-02-15T05:31:51;23.70;40.50
63371;DHT22;72561;48.336;14.472;2024-02-15T05:33:33;23.70;40.50
63371;DHT22;72561;48.336;14.472;2024-02-15T05:35:14;23.70;40.60
63371;DHT22;72561;48.336;14.472;2024-02-15T05:36:55;23.70;40.40
63371;DHT22;72561;48.336;14.472;2024-02-15T05:38:36;23.70;40.40
63371;DHT22;72561;48.336;14.472;2024-02-15T05:40:17;23.70;40.40
63371;DHT22;72561;48.336;14.472;2024-02-15T05:41:58;23.70;40.30
63371;DHT22;72561;48.336;14.472;2024-02-15T05:43:41;23.70;40.30
63371;DHT22;72561;48.336;14.472;2024-02-15T05:45:29;23.70;40.40
63371;DHT22;72561;48.336;14.472;2024-02-15T05:47:11;23.70;40.40
63371;DHT22;72561;48.336;14.472;2024-02-15T05:48:52;23.70;40.40
63371;DHT22;72561;48.336;14.472;2024-02-15T05:50:33;23.70;40.40
63371;DHT22;72561;48.336;14.472;2024-02-15T05:52:14;23.70;40.40
63371;DHT22;72561;48.336;14.472;2024-02-15T05:53:55;23.70;40.40
63371;DHT22;72561;48.336;14.472;2024-02-15T05:55:37;23.70;40.50
63371;DHT22;72561;48.336;14.472;2024-02-15T05:57:19;23.60;40.40
63371;DHT22;72561;48.336;14.472;2024-02-15T05:59:01;23.60;40.30
63371;DHT22;72561;48.336;14.472;2024-02-15T06:00:43;23.60;40.40
63371;DHT22;72561;48.336;14.472;2024-02-15T06:02:25;23.60;40.30
63371;DHT22;72561;48.336;14.472;2024-02-15T06:04:08;23.60;40.40
63371;DHT22;72561;48.336;14.472;2024-02-15T06:05:49;23.60;40.30
63371;DHT22;72561;48.336;14.472;2024-02-15T06:07:30;23.60;40.30
63371;DHT22;72561;48.336;14.472;2024-02-15T06:09:11;23.60;40.30
63371;DHT22;72561;48.336;14.472;2024-02-15T06:10:53;23.60;40.40
63371;DHT22;72561;48.336;14.472;2024-02-15T06:12:34;23.60;40.30
63371;DHT22;72561;48.336;14.472;2024-02-15T06:14:17;23.60;40.30
63371;DHT22;72561;48.336;14.472;2024-02-15T06:15:58;23.60;40.30
63371;DHT22;72561;48.336;14.472;2024-02-15T06:17:39;23.60;40.30
63371;DHT22;72561;48.336;14.472;2024-02-15T06:19:20;23.60;41.10
63371;DHT22;72561;48.336;14.472;2024-02-15T06:21:01;23.60;40.40
63371;DHT22;72561;48.336;14.472;2024-02-15T06:22:42;23.60;40.50
63371;DHT22;72561;48.336;14.472;2024-02-15T06:24:23;23.60;40.50
63371;DHT22;72561;48.336;14.472;2024-02-15T06:26:05;23.50;40.50
63371;DHT22;72561;48.336;14.472;2024-02-15T06:27:46;23.50;40.50
63371;DHT22;72561;48.336;14.472;2024-02-15T06:29:29;23.60;40.60
63371;DHT22;72561;48.336;14.472;2024-02-15T06:31:11;23.60;40.50
63371;DHT22;72561;48.336;14.472;2024-02-15T06:32:52;23.50;40.50
63371;DHT22;72561;48.336;14.472;2024-02-15T06:34:33;23.50;40.50
63371;DHT22;72561;48.336;14.472;2024-02-15T06:36:15;23.50;40.50
63371;DHT22;72561;48.336;14.472;2024-02-15T06:37:56;23.50;40.40
63371;DHT22;72561;48.336;14.472;2024-02-15T06:39:37;23.50;40.50
63371;DHT22;72561;48.336;14.472;2024-02-15T06:41:18;23.50;40.50
63371;DHT22;72561;48.336;14.472;2024-02-15T06:42:59;23.50;40.50
63371;DHT22;72561;48.336;14.472;2024-02-15T06:44:42;23.50;40.50
63371;DHT22;72561;48.336;14.472;2024-02-15T06:46:23;23.50;40.50
63371;DHT22;72561;48.336;14.472;2024-02-15T06:48:04;23.50;40.50
63371;DHT22;72561;48.336;14.472;2024-02-15T06:49:46;23.50;40.50
63371;DHT22;72561;48.336;14.472;2024-02-15T06:51:27;23.50;40.40
63371;DHT22;72561;48.336;14.472;2024-02-15T06:53:08;23.50;40.50
63371;DHT22;72561;48.336;14.472;2024-02-15T06:54:49;23.60;40.60
63371;DHT22;72561;48.336;14.472;2024-02-15T06:56:30;23.50;40.50
63371;DHT22;72561;48.336;14.472;2024-02-15T06:58:17;23.50;40.50
63371;DHT22;72561;48.336;14.472;2024-02-15T06:59:59;23.50;40.50
63371;DHT22;72561;48.336;14.472;2024-02-15T07:01:40;23.50;40.50
63371;DHT22;72561;48.336;14.472;2024-02-15T07:03:22;23.50;40.50
63371;DHT22;72561;48.336;14.472;2024-02-15T07:05:03;23.50;40.50
63371;DHT22;72561;48.336;14.472;2024-02-15T07:06:45;23.50;40.50
63371;DHT22;72561;48.336;14.472;2024-02-15T07:08:26;23.50;40.50
63371;DHT22;72561;48.336;14.472;2024-02-15T07:10:08;23.50;40.50
63371;DHT22;72561;48.336;14.472;2024-02-15T07:11:50;23.50;40.50
63371;DHT22;72561;48.336;14.472;2024-02-15T07:13:31;23.50;40.50
63371;DHT22;72561;48.336;14.472;2024-02-15T07:15:13;23.50;40.50
63371;DHT22;72561;48.336;14.472;2024-02-15T07:16:55;23.50;40.50
63371;DHT22;72561;48.336;14.472;2024-02-15T07:18:36;23.50;40.50
63371;DHT22;72561;48.336;14.472;2024-02-15T07:20:17;23.50;40.50
63371;DHT22;72561;48.336;14.472;2024-02-15T07:21:58;23.50;40.50
63371;DHT22;72561;48.336;14.472;2024-02-15T07:23:39;23.50;40.50
63371;DHT22;72561;48.336;14.472;2024-02-15T07:25:20;23.50;40.50
63371;DHT22;72561;48.336;14.472;2024-02-15T07:27:01;23.50;40.50
63371;DHT22;72561;48.336;14.472;2024-02-15T07:28:43;23.50;40.60
63371;DHT22;72561;48.336;14.472;2024-02-15T07:30:27;23.50;40.60
63371;DHT22;72561;48.336;14.472;2024-02-15T07:32:08;23.50;40.60
63371;DHT22;72561;48.336;14.472;2024-02-15T07:33:50;23.50;40.50
63371;DHT22;72561;48.336;14.472;2024-02-15T07:35:31;23.50;40.60
63371;DHT22;72561;48.336;14.472;2024-02-15T07:37:12;23.50;40.60
63371;DHT22;72561;48.336;14.472;2024-02-15T07:38:54;23.50;40.60
63371;DHT22;72561;48.336;14.472;2024-02-15T07:40:35;23.50;40.60
63371;DHT22;72561;48.336;14.472;2024-02-15T07:42:16;23.50;40.50
63371;DHT22;72561;48.336;14.472;2024-02-15T07:43:58;23.50;40.50
63371;DHT22;72561;48.336;14.472;2024-02-15T07:45:42;23.50;40.60
63371;DHT22;72561;48.336;14.472;2024-02-15T07:47:23;23.50;40.60
63371;DHT22;72561;48.336;14.472;2024-02-15T07:49:05;23.50;40.60
63371;DHT22;72561;48.336;14.472;2024-02-15T07:50:46;23.50;40.60
63371;DHT22;72561;48.336;14.472;2024-02-15T07:52:28;23.50;40.50
63371;DHT22;72561;48.336;14.472;2024-02-15T07:54:09;23.50;40.50
63371;DHT22;72561;48.336;14.472;2024-02-15T07:55:50;23.50;40.50
63371;DHT22;72561;48.336;14.472;2024-02-15T07:57:32;23.50;40.60
63371;DHT22;72561;48.336;14.472;2024-02-15T07:59:13;23.50;40.50
63371;DHT22;72561;48.336;14.472;2024-02-15T08:00:55;23.50;40.60
63371;DHT22;72561;48.336;14.472;2024-02-15T08:02:37;23.60;40.70
63371;DHT22;72561;48.336;14.472;2024-02-15T08:04:19;23.50;40.60
63371;DHT22;72561;48.336;14.472;2024-02-15T08:06:01;23.60;40.70
63371;DHT22;72561;48.336;14.472;2024-02-15T08:07:43;23.60;40.70
63371;DHT22;72561;48.336;14.472;2024-02-15T08:09:25;23.60;40.70
63371;DHT22;72561;48.336;14.472;2024-02-15T08:11:06;23.50;40.50
63371;DHT22;72561;48.336;14.472;2024-02-15T08:12:47;23.50;40.60
63371;DHT22;72561;48.336;14.472;2024-02-15T08:14:28;23.50;40.50
63371;DHT22;72561;48.336;14.472;2024-02-15T08:16:11;23.50;40.60
63371;DHT22;72561;48.336;14.472;2024-02-15T08:17:52;23.60;41.30
63371;DHT22;72561;48.336;14.472;2024-02-15T08:19:33;23.50;40.60
63371;DHT22;72561;48.336;14.472;2024-02-15T08:21:14;23.50;40.60
63371;DHT22;72561;48.336;14.472;2024-02-15T08:22:56;23.50;40.50
63371;DHT22;72561;48.336;14.472;2024-02-15T08:24:37;23.60;40.60
63371;DHT22;72561;48.336;14.472;2024-02-15T08:26:18;23.60;40.50
63371;DHT22;72561;48.336;14.472;2024-02-15T08:27:59;23.60;40.50
63371;DHT22;72561;48.336;14.472;2024-02-15T08:29:40;23.60;40.50
63371;DHT22;72561;48.336;14.472;2024-02-15T08:31:23;23.60;40.50
63371;DHT22;72561;48.336;14.472;2024-02-15T08:33:04;23.60;40.50
63371;DHT22;72561;48.336;14.472;2024-02-15T08:34:46;23.60;40.50
63371;DHT22;72561;48.336;14.472;2024-02-15T08:36:27;23.60;40.50
63371;DHT22;72561;48.336;14.472;2024-02-15T08:38:08;23.60;40.50
63371;DHT22;72561;48.336;14.472;2024-02-15T08:39:49;23.60;40.50
63371;DHT22;72561;48.336;14.472;2024-02-15T08:41:30;23.70;40.60
63371;DHT22;72561;48.336;14.472;2024-02-15T08:43:11;23.70;40.60
63371;DHT22;72561;48.336;14.472;2024-02-15T08:44:52;23.70;40.60
63371;DHT22;72561;48.336;14.472;2024-02-15T08:46:35;23.70;40.50
63371;DHT22;72561;48.336;14.472;2024-02-15T08:48:16;23.70;40.50
63371;DHT22;72561;48.336;14.472;2024-02-15T08:49:57;23.70;40.50
63371;DHT22;72561;48.336;14.472;2024-02-15T08:51:38;23.70;40.50
63371;DHT22;72561;48.336;14.472;2024-02-15T08:53:19;23.80;40.60
63371;DHT22;72561;48.336;14.472;2024-02-15T08:55:00;23.80;40.50
63371;DHT22;72561;48.336;14.472;2024-02-15T08:56:42;23.80;40.50
63371;DHT22;72561;48.336;14.472;2024-02-15T08:58:23;23.80;40.50
63371;DHT22;72561;48.336;14.472;2024-02-15T09:00:05;23.80;40.50
63371;DHT22;72561;48.336;14.472;2024-02-15T09:01:50;23.90;40.50
63371;DHT22;72561;48.336;14.472;2024-02-15T09:03:31;23.90;40.50
63371;DHT22;72561;48.336;14.472;2024-02-15T09:05:13;23.90;40.50
63371;DHT22;72561;48.336;14.472;2024-02-15T09:06:54;23.90;40.50
63371;DHT22;72561;48.336;14.472;2024-02-15T09:08:35;23.90;40.50
63371;DHT22;72561;48.336;14.472;2024-02-15T09:10:17;23.90;40.50
63371;DHT22;72561;48.336;14.472;2024-02-15T09:12:01;23.90;40.50
63371;DHT22;72561;48.336;14.472;2024-02-15T09:13:42;23.90;40.50
63371;DHT22;72561;48.336;14.472;2024-02-15T09:15:23;23.90;40.40
63371;DHT22;72561;48.336;14.472;2024-02-15T09:17:06;24.00;40.50
63371;DHT22;72561;48.336;14.472;2024-02-15T09:18:47;23.90;40.40
63371;DHT22;72561;48.336;14.472;2024-02-15T09:20:28;24.00;40.50
63371;DHT22;72561;48.336;14.472;2024-02-15T09:22:09;24.00;40.50
63371;DHT22;72561;48.336;14.472;2024-02-15T09:23:50;24.00;40.40
63371;DHT22;72561;48.336;14.472;2024-02-15T09:25:31;24.00;40.40
63371;DHT22;72561;48.336;14.472;2024-02-15T09:27:12;24.10;40.50
63371;DHT22;72561;48.336;14.472;2024-02-15T09:28:53;24.20;40.50
63371;DHT22;72561;48.336;14.472;2024-02-15T09:30:35;24.20;40.40
63371;DHT22;72561;48.336;14.472;2024-02-15T09:32:17;24.20;41.10
63371;DHT22;72561;48.336;14.472;2024-02-15T09:33:58;24.30;40.40
63371;DHT22;72561;48.336;14.472;2024-02-15T09:35:39;24.40;40.30
63371;DHT22;72561;48.336;14.472;2024-02-15T09:37:20;24.50;40.40
63371;DHT22;72561;48.336;14.472;2024-02-15T09:39:02;24.50;40.30
63371;DHT22;72561;48.336;14.472;2024-02-15T09:40:44;24.50;40.20
63371;DHT22;72561;48.336;14.472;2024-02-15T09:42:29;24.70;40.20
63371;DHT22;72561;48.336;14.472;2024-02-15T09:44:10;24.70;40.10
63371;DHT22;72561;48.336;14.472;2024-02-15T09:45:51;24.80;40.10
63371;DHT22;72561;48.336;14.472;2024-02-15T09:47:35;24.90;40.00
63371;DHT22;72561;48.336;14.472;2024-02-15T09:49:16;24.90;39.90
63371;DHT22;72561;48.336;14.472;2024-02-15T09:50:58;25.00;39.90
63371;DHT22;72561;48.336;14.472;2024-02-15T09:52:44;25.10;39.80
63371;DHT22;72561;48.336;14.472;2024-02-15T09:54:31;25.10;39.70
63371;DHT22;72561;48.336;14.472;2024-02-15T09:56:14;25.20;39.80
63371;DHT22;72561;48.336;14.472;2024-02-15T09:59:49;25.30;39.90
63371;DHT22;72561;48.336;14.472;2024-02-15T10:01:37;25.30;39.90
63371;DHT22;72561;48.336;14.472;2024-02-15T10:03:24;25.30;39.80
63371;DHT22;72561;48.336;14.472;2024-02-15T10:05:14;25.30;39.70
63371;DHT22;72561;48.336;14.472;2024-02-15T10:06:55;25.40;39.70
63371;DHT22;72561;48.336;14.472;2024-02-15T10:08:41;25.40;39.60
63371;DHT22;72561;48.336;14.472;2024-02-15T10:10:23;25.40;39.60
63371;DHT22;72561;48.336;14.472;2024-02-15T10:12:06;25.50;39.60
63371;DHT22;72561;48.336;14.472;2024-02-15T10:13:47;25.50;39.50
63371;DHT22;72561;48.336;14.472;2024-02-15T10:15:30;25.60;39.60
63371;DHT22;72561;48.336;14.472;2024-02-15T10:17:12;25.60;39.40
63371;DHT22;72561;48.336;14.472;2024-02-15T10:19:08;25.70;39.50
63371;DHT22;72561;48.336;14.472;2024-02-15T10:20:57;25.70;39.50
63371;DHT22;72561;48.336;14.472;2024-02-15T10:22:38;25.80;39.40
63371;DHT22;72561;48.336;14.472;2024-02-15T10:24:20;25.80;39.30
63371;DHT22;72561;48.336;14.472;2024-02-15T10:26:19;25.80;39.20
63371;DHT22;72561;48.336;14.472;2024-02-15T10:28:02;25.90;39.30
63371;DHT22;72561;48.336;14.472;2024-02-15T10:29:43;25.90;39.20
63371;DHT22;72561;48.336;14.472;2024-02-15T10:31:24;25.90;39.10
63371;DHT22;72561;48.336;14.472;2024-02-15T10:33:06;25.90;39.10